createdAt,value
2023-03-29T00:01:36.029Z,2.50
2023-03-29T00:04:06.964Z,1.35
2023-03-29T00:06:38.072Z,1.10
2023-03-29T00:09:10.871Z,1.08
2023-03-29T00:11:41.263Z,1.15
2023-03-29T00:14:12.218Z,1.13
2023-03-29T00:16:44.790Z,1.40
2023-03-29T00:19:14.994Z,1.20
2023-03-29T00:21:45.178Z,1.05
2023-03-29T00:24:18.095Z,1.25
2023-03-29T00:26:48.196Z,1.40
2023-03-29T00:29:18.458Z,1.42
2023-03-29T00:31:53.956Z,0.82
2023-03-29T00:34:24.687Z,1.40
2023-03-29T00:36:58.124Z,1.65
2023-03-29T00:39:31.318Z,1.38
2023-03-29T00:42:01.442Z,1.35
2023-03-29T00:45:00.330Z,1.52
2023-03-29T00:47:34.113Z,1.95
2023-03-29T00:50:07.941Z,1.13
2023-03-29T00:52:39.242Z,1.27
2023-03-29T00:55:17.272Z,1.85
2023-03-29T00:57:49.520Z,0.98
2023-03-29T01:00:22.536Z,1.00
2023-03-29T01:02:56.189Z,1.02
2023-03-29T01:05:32.333Z,1.30
2023-03-29T01:08:06.850Z,1.08
2023-03-29T01:10:44.420Z,1.42
2023-03-29T01:13:17.582Z,1.65
2023-03-29T01:15:49.871Z,1.55
2023-03-29T01:18:19.975Z,1.02
2023-03-29T01:21:06.798Z,1.27
2023-03-29T01:24:07.101Z,1.17
2023-03-29T01:26:57.090Z,1.98
2023-03-29T01:29:35.074Z,1.08
2023-03-29T01:32:10.232Z,1.27
2023-03-29T01:34:45.341Z,1.58
2023-03-29T01:37:18.794Z,1.20
2023-03-29T01:39:49.641Z,1.30
2023-03-29T01:42:35.443Z,1.95
2023-03-29T01:45:13.288Z,1.48
2023-03-29T01:50:22.220Z,1.35
2023-03-29T01:52:57.283Z,1.58
2023-03-29T01:55:30.320Z,1.45
2023-03-29T01:58:02.892Z,2.45
2023-03-29T02:00:37.827Z,1.08
2023-03-29T02:03:12.011Z,1.60
2023-03-29T02:05:43.646Z,1.92
2023-03-29T02:08:16.287Z,1.67
2023-03-29T02:10:47.734Z,1.23
2023-03-29T02:13:18.355Z,1.48
2023-03-29T02:15:51.454Z,1.52
2023-03-29T02:18:22.794Z,1.75
2023-03-29T02:23:27.557Z,3.00
2023-03-29T02:25:59.226Z,1.75
2023-03-29T02:28:29.792Z,1.50
2023-03-29T02:31:08.562Z,2.03
2023-03-29T02:33:46.767Z,1.42
2023-03-29T02:36:22.697Z,1.80
2023-03-29T02:38:53.111Z,2.25
2023-03-29T02:41:23.991Z,1.50
2023-03-29T02:43:56.184Z,2.45
2023-03-29T02:46:29.715Z,1.50
2023-03-29T02:49:01.919Z,1.83
2023-03-29T02:51:35.512Z,1.33
2023-03-29T02:54:10.288Z,1.45
2023-03-29T02:56:47.970Z,1.30
2023-03-29T02:59:20.494Z,1.25
2023-03-29T03:01:53.916Z,2.67
2023-03-29T03:04:25.695Z,1.35
2023-03-29T03:06:56.047Z,1.88
2023-03-29T03:09:26.579Z,1.92
2023-03-29T03:11:57.001Z,1.17
2023-03-29T03:14:28.425Z,1.70
2023-03-29T03:17:03.931Z,1.92
2023-03-29T03:19:34.919Z,2.55
2023-03-29T03:22:06.130Z,1.75
2023-03-29T03:27:06.503Z,1.80
2023-03-29T03:29:38.756Z,1.48
2023-03-29T03:32:12.603Z,1.75
2023-03-29T03:34:42.988Z,1.83
2023-03-29T03:37:15.686Z,2.13
2023-03-29T03:39:46.428Z,1.40
2023-03-29T03:42:16.749Z,1.83
2023-03-29T03:44:46.972Z,1.75
2023-03-29T03:47:19.697Z,1.48
2023-03-29T03:49:50.037Z,1.75
2023-03-29T03:52:20.371Z,1.92
2023-03-29T03:54:50.552Z,1.42
2023-03-29T03:57:20.761Z,2.05
2023-03-29T03:59:50.943Z,1.75
2023-03-29T04:02:23.665Z,2.63
2023-03-29T04:04:55.015Z,1.98
2023-03-29T04:07:25.587Z,2.10
2023-03-29T04:09:56.018Z,1.50
2023-03-29T04:12:26.337Z,1.95
2023-03-29T04:14:56.967Z,2.08
2023-03-29T04:17:30.174Z,1.60
2023-03-29T04:20:01.726Z,2.38
2023-03-29T04:22:31.836Z,1.60
2023-03-29T04:25:02.064Z,1.50
2023-03-29T04:27:32.166Z,2.20
2023-03-29T04:30:02.477Z,2.10
2023-03-29T04:32:35.222Z,1.90
2023-03-29T04:35:05.491Z,1.33
2023-03-29T04:37:35.913Z,2.05
2023-03-29T04:40:09.411Z,2.20
2023-03-29T04:42:42.534Z,1.80
2023-03-29T04:45:14.157Z,1.70
2023-03-29T04:47:47.349Z,2.22
2023-03-29T04:50:17.736Z,2.00
2023-03-29T04:52:47.939Z,1.67
2023-03-29T04:55:18.178Z,1.52
2023-03-29T04:57:48.300Z,2.10
2023-03-29T05:00:20.523Z,1.83
2023-03-29T05:02:53.258Z,1.45
2023-03-29T05:05:23.648Z,2.03
2023-03-29T05:07:55.083Z,1.98
2023-03-29T05:10:25.496Z,2.35
2023-03-29T05:12:56.401Z,1.40
2023-03-29T05:15:26.945Z,2.00
2023-03-29T05:18:01.019Z,2.15
2023-03-29T05:20:31.649Z,2.08
2023-03-29T05:23:01.901Z,1.70
2023-03-29T05:25:32.050Z,1.73
2023-03-29T05:28:02.596Z,1.48
2023-03-29T05:30:33.480Z,2.08
2023-03-29T05:33:09.631Z,2.45
2023-03-29T05:35:39.832Z,2.35
2023-03-29T05:38:09.959Z,2.75
2023-03-29T05:40:41.705Z,1.95
2023-03-29T05:43:12.344Z,1.52
2023-03-29T05:45:42.728Z,1.77
2023-03-29T05:48:15.502Z,2.28
2023-03-29T05:50:52.536Z,1.63
2023-03-29T05:53:25.949Z,1.92
2023-03-29T05:55:56.494Z,1.58
2023-03-29T05:58:28.725Z,1.55
2023-03-29T06:01:00.877Z,1.17
2023-03-29T06:03:33.988Z,1.67
2023-03-29T06:06:05.849Z,2.08
2023-03-29T06:08:37.790Z,1.60
2023-03-29T06:11:11.066Z,1.95
2023-03-29T06:13:42.367Z,2.72
2023-03-29T06:18:46.655Z,1.75
2023-03-29T06:21:17.101Z,1.73
2023-03-29T06:23:47.655Z,2.10
2023-03-29T06:26:18.037Z,3.53
2023-03-29T06:28:51.914Z,2.20
2023-03-29T06:31:23.178Z,2.40
2023-03-29T06:33:57.904Z,2.03
2023-03-29T06:36:28.792Z,2.00
2023-03-29T06:38:58.963Z,2.17
2023-03-29T06:41:29.152Z,2.65
2023-03-29T06:43:59.253Z,2.97
2023-03-29T06:46:29.814Z,2.17
2023-03-29T06:49:02.763Z,2.42
2023-03-29T06:51:32.994Z,2.58
2023-03-29T06:54:04.368Z,3.08
2023-03-29T06:56:35.116Z,2.90
2023-03-29T06:59:05.506Z,2.20
2023-03-29T07:01:35.882Z,1.98
2023-03-29T07:04:09.655Z,1.38
2023-03-29T07:06:40.684Z,2.65
2023-03-29T07:09:13.097Z,3.05
2023-03-29T07:11:43.451Z,2.38
2023-03-29T07:14:13.613Z,2.78
2023-03-29T07:16:45.129Z,3.38
2023-03-29T07:19:17.961Z,2.83
2023-03-29T07:21:48.130Z,3.00
2023-03-29T07:24:19.482Z,3.17
2023-03-29T07:27:03.097Z,2.50
2023-03-29T07:29:34.890Z,2.35
2023-03-29T07:32:05.923Z,2.50
2023-03-29T07:34:42.332Z,2.15
2023-03-29T07:37:12.493Z,2.50
2023-03-29T07:39:42.705Z,2.72
2023-03-29T07:42:12.873Z,3.25
2023-03-29T07:44:43.191Z,3.38
2023-03-29T07:47:13.829Z,2.47
2023-03-29T07:49:46.540Z,3.00
2023-03-29T07:52:17.199Z,2.78
2023-03-29T07:54:47.589Z,2.63
2023-03-29T07:57:17.727Z,3.15
2023-03-29T07:59:47.852Z,2.70
2023-03-29T08:02:18.236Z,3.42
2023-03-29T08:04:51.038Z,1.98
2023-03-29T08:07:22.231Z,2.85
2023-03-29T08:12:24.555Z,2.15
2023-03-29T08:14:55.214Z,2.88
2023-03-29T08:17:25.574Z,2.40
2023-03-29T08:19:58.337Z,4.03
2023-03-29T08:22:28.778Z,4.53
2023-03-29T08:24:58.942Z,3.55
2023-03-29T08:27:29.309Z,4.38
2023-03-29T08:29:59.442Z,4.43
2023-03-29T08:32:29.649Z,3.65
2023-03-29T08:35:04.065Z,3.47
2023-03-29T08:37:34.852Z,4.03
2023-03-29T08:40:05.753Z,4.85
2023-03-29T08:43:02.096Z,4.35
2023-03-29T08:45:37.165Z,2.95
2023-03-29T08:48:17.539Z,3.58
2023-03-29T08:50:54.831Z,3.67
2023-03-29T08:53:30.774Z,3.03
2023-03-29T08:56:03.134Z,3.10
2023-03-29T08:58:36.584Z,3.22
2023-03-29T09:01:09.646Z,3.25
2023-03-29T09:03:44.433Z,2.13
2023-03-29T09:06:19.050Z,3.55
2023-03-29T09:08:52.693Z,1.67
2023-03-29T09:11:46.071Z,3.00
2023-03-29T09:14:46.483Z,3.97
2023-03-29T09:17:26.565Z,2.47
2023-03-29T09:20:07.203Z,2.45
2023-03-29T09:22:46.854Z,2.88
2023-03-29T09:25:25.483Z,3.08
2023-03-29T09:28:03.240Z,2.78
2023-03-29T09:30:37.825Z,3.05
2023-03-29T09:33:15.472Z,3.38
2023-03-29T09:38:21.135Z,3.00
2023-03-29T09:40:54.644Z,3.72
2023-03-29T09:43:32.582Z,3.67
2023-03-29T09:46:07.275Z,3.30
2023-03-29T09:48:43.676Z,3.28
2023-03-29T09:51:15.888Z,3.33
2023-03-29T09:53:48.635Z,3.67
2023-03-29T09:56:19.280Z,2.75
2023-03-29T09:58:49.829Z,2.47
2023-03-29T10:01:20.616Z,3.38
2023-03-29T10:03:54.774Z,3.30
2023-03-29T10:06:27.966Z,3.15
2023-03-29T10:09:01.205Z,2.97
2023-03-29T10:11:36.286Z,2.63
2023-03-29T10:14:08.700Z,2.75
2023-03-29T10:16:42.092Z,2.58
2023-03-29T10:19:25.181Z,3.70
2023-03-29T10:21:56.370Z,3.05
2023-03-29T10:24:30.472Z,2.40
2023-03-29T10:27:03.180Z,2.83
2023-03-29T10:29:42.440Z,2.78
2023-03-29T10:32:21.548Z,3.38
2023-03-29T10:34:53.125Z,2.95
2023-03-29T10:37:24.147Z,2.70
2023-03-29T10:39:58.033Z,2.58
2023-03-29T10:42:28.918Z,3.15
2023-03-29T10:45:01.005Z,2.80
2023-03-29T10:47:35.246Z,3.22
2023-03-29T10:50:10.079Z,2.42
2023-03-29T10:52:44.035Z,4.45
2023-03-29T10:55:19.697Z,2.55
2023-03-29T10:58:03.526Z,2.95
2023-03-29T11:00:40.086Z,3.05
2023-03-29T11:03:40.706Z,3.33
2023-03-29T11:06:19.288Z,2.80
2023-03-29T11:08:59.864Z,2.42
2023-03-29T11:12:15.744Z,2.67
2023-03-29T11:14:58.785Z,2.30
2023-03-29T11:17:40.990Z,2.63
2023-03-29T11:20:29.788Z,2.30
2023-03-29T11:23:12.871Z,2.67
2023-03-29T11:25:56.616Z,2.35
2023-03-29T11:28:37.320Z,2.38
2023-03-29T11:31:17.643Z,1.88
2023-03-29T11:33:59.995Z,2.88
2023-03-29T11:36:39.932Z,2.90
2023-03-29T11:39:19.725Z,2.33
2023-03-29T11:41:53.139Z,3.15
2023-03-29T11:44:30.295Z,3.05
2023-03-29T11:47:05.179Z,1.98
2023-03-29T11:49:40.601Z,2.15
2023-03-29T11:52:16.616Z,3.00
2023-03-29T11:54:52.120Z,2.58
2023-03-29T11:57:27.309Z,2.70
2023-03-29T12:00:05.635Z,2.35
2023-03-29T12:02:40.008Z,2.78
2023-03-29T12:05:21.224Z,3.40
2023-03-29T12:07:56.554Z,2.70
2023-03-29T12:10:34.161Z,2.72
2023-03-29T12:13:09.996Z,2.13
2023-03-29T12:15:48.534Z,2.72
2023-03-29T12:18:24.323Z,2.03
2023-03-29T12:20:59.819Z,2.13
2023-03-29T12:23:33.656Z,1.98
2023-03-29T12:26:10.941Z,1.30
2023-03-29T12:31:34.181Z,1.77
2023-03-29T12:34:25.405Z,2.75
2023-03-29T12:37:09.044Z,2.20
2023-03-29T12:39:39.962Z,2.28
2023-03-29T12:42:17.854Z,1.85
2023-03-29T12:44:52.490Z,1.92
2023-03-29T12:47:30.150Z,1.55
2023-03-29T12:50:02.399Z,1.20
2023-03-29T12:52:36.321Z,1.00
2023-03-29T12:55:23.933Z,1.00
2023-03-29T12:58:04.835Z,1.33
2023-03-29T13:00:45.769Z,1.13
2023-03-29T13:03:32.651Z,1.48
2023-03-29T13:06:05.540Z,1.40
2023-03-29T13:08:38.154Z,1.38
2023-03-29T13:11:10.101Z,1.73
2023-03-29T13:13:43.112Z,1.52
2023-03-29T13:16:16.433Z,1.02
2023-03-29T13:19:06.813Z,1.27
2023-03-29T13:21:47.085Z,1.30
2023-03-29T13:24:31.938Z,2.08
2023-03-29T13:27:10.386Z,1.85
2023-03-29T13:29:59.866Z,1.52
2023-03-29T13:32:52.786Z,1.33
2023-03-29T13:35:37.107Z,1.27
2023-03-29T13:38:19.811Z,1.80
2023-03-29T13:41:01.650Z,1.30
2023-03-29T13:43:37.874Z,1.05
2023-03-29T13:46:22.497Z,0.95
2023-03-29T13:49:01.119Z,1.58
2023-03-29T13:51:38.057Z,1.30
2023-03-29T13:54:18.201Z,1.25
2023-03-29T13:57:00.820Z,1.38
2023-03-29T13:59:38.233Z,1.15
2023-03-29T14:04:44.429Z,1.10
2023-03-29T14:07:18.321Z,1.17
2023-03-29T14:09:52.922Z,1.13
2023-03-29T14:12:23.366Z,1.25
2023-03-29T14:14:59.314Z,1.60
2023-03-29T14:17:31.915Z,1.00
2023-03-29T14:20:09.448Z,1.67
2023-03-29T14:22:45.082Z,1.08
2023-03-29T14:25:19.292Z,0.82
2023-03-29T14:27:49.396Z,0.95
2023-03-29T14:30:25.402Z,1.27
2023-03-29T14:32:56.996Z,1.00
2023-03-29T14:35:34.022Z,1.20
2023-03-29T14:38:06.952Z,1.42
2023-03-29T14:40:37.591Z,1.48
2023-03-29T14:43:11.366Z,1.27
2023-03-29T14:45:41.850Z,2.17
2023-03-29T14:48:15.089Z,1.27
2023-03-29T14:50:47.148Z,1.52
2023-03-29T14:53:22.840Z,1.75
2023-03-29T14:55:55.136Z,1.55
2023-03-29T14:58:27.107Z,1.52
2023-03-29T15:00:57.516Z,1.65
2023-03-29T15:03:29.536Z,1.50
2023-03-29T15:06:04.185Z,1.65
2023-03-29T15:08:40.552Z,1.67
2023-03-29T15:11:22.073Z,1.10
2023-03-29T15:13:54.778Z,1.67
2023-03-29T15:16:25.823Z,2.10
2023-03-29T15:18:56.455Z,1.65
2023-03-29T15:21:28.520Z,1.77
2023-03-29T15:24:03.325Z,1.85
2023-03-29T15:26:36.109Z,1.50
2023-03-29T15:29:10.615Z,1.65
2023-03-29T15:31:42.969Z,1.33
2023-03-29T15:34:16.228Z,1.70
2023-03-29T15:36:48.079Z,1.98
2023-03-29T15:39:21.690Z,2.28
2023-03-29T15:41:54.072Z,1.45
2023-03-29T15:44:29.516Z,1.83
2023-03-29T15:47:00.598Z,2.75
2023-03-29T15:49:30.923Z,1.60
2023-03-29T15:52:01.102Z,1.80
2023-03-29T15:54:35.180Z,1.83
2023-03-29T15:57:09.020Z,2.42
2023-03-29T15:59:39.437Z,2.05
2023-03-29T16:02:15.965Z,2.67
2023-03-29T16:04:46.731Z,3.03
2023-03-29T16:07:19.569Z,2.33
2023-03-29T16:09:52.435Z,2.63
2023-03-29T16:12:23.275Z,2.50
2023-03-29T16:14:53.474Z,2.03
2023-03-29T16:17:23.879Z,2.30
2023-03-29T16:19:54.029Z,1.83
2023-03-29T16:22:24.270Z,2.47
2023-03-29T16:24:57.024Z,2.38
2023-03-29T16:27:27.417Z,1.48
2023-03-29T16:29:58.979Z,1.40
2023-03-29T16:32:29.283Z,2.13
2023-03-29T16:35:00.106Z,2.42
2023-03-29T16:40:04.054Z,1.98
2023-03-29T16:42:34.423Z,2.33
2023-03-29T16:45:05.016Z,1.75
2023-03-29T16:47:35.282Z,2.22
2023-03-29T16:50:05.871Z,2.45
2023-03-29T16:52:36.213Z,2.00
2023-03-29T16:55:12.311Z,2.25
2023-03-29T16:57:42.867Z,2.53
2023-03-29T17:00:14.476Z,3.33
2023-03-29T17:02:44.979Z,1.92
2023-03-29T17:05:15.929Z,2.65
2023-03-29T17:07:46.241Z,2.10
2023-03-29T17:10:19.106Z,1.92
2023-03-29T17:12:49.715Z,2.30
2023-03-29T17:15:20.166Z,2.90
2023-03-29T17:17:51.068Z,2.15
2023-03-29T17:20:21.768Z,2.60
2023-03-29T17:22:54.108Z,2.88
2023-03-29T17:25:29.971Z,2.67
2023-03-29T17:28:00.161Z,3.80
2023-03-29T17:30:30.361Z,3.15
2023-03-29T17:33:00.523Z,2.53
2023-03-29T17:35:31.332Z,3.10
2023-03-29T17:40:34.527Z,2.42
2023-03-29T17:43:04.728Z,1.98
2023-03-29T17:45:35.578Z,2.50
2023-03-29T17:50:36.986Z,2.17
2023-03-29T17:53:07.542Z,2.80
2023-03-29T17:55:42.631Z,2.20
2023-03-29T17:58:12.876Z,1.95
2023-03-29T18:00:43.202Z,2.78
2023-03-29T18:03:13.560Z,2.35
2023-03-29T18:05:43.866Z,2.10
2023-03-29T18:08:15.218Z,2.20
2023-03-29T18:10:48.023Z,1.75
2023-03-29T18:13:18.363Z,2.35
2023-03-29T18:15:48.599Z,2.45
2023-03-29T18:18:19.154Z,2.13
2023-03-29T18:20:49.369Z,2.10
2023-03-29T18:23:19.703Z,2.42
2023-03-29T18:25:52.464Z,2.90
2023-03-29T18:28:25.213Z,2.25
2023-03-29T18:30:55.761Z,1.48
2023-03-29T18:33:28.198Z,1.38
2023-03-29T18:35:58.367Z,1.85
2023-03-29T18:38:28.694Z,1.73
2023-03-29T18:41:01.800Z,1.45
2023-03-29T18:43:32.692Z,2.00
2023-03-29T18:51:05.612Z,1.70
2023-03-29T18:53:36.098Z,1.50
2023-03-29T18:56:09.362Z,1.98
2023-03-29T18:58:39.770Z,1.67
2023-03-29T19:01:11.132Z,1.27
2023-03-29T19:03:41.757Z,1.73
2023-03-29T19:06:12.245Z,1.45
2023-03-29T19:08:42.746Z,1.80
2023-03-29T19:11:17.159Z,3.05
2023-03-29T19:13:50.740Z,1.52
2023-03-29T19:16:21.142Z,1.60
2023-03-29T19:18:51.997Z,1.65
2023-03-29T19:21:22.237Z,1.67
2023-03-29T19:23:53.676Z,1.80
2023-03-29T19:26:26.577Z,2.40
2023-03-29T19:28:57.344Z,2.03
2023-03-29T19:33:58.225Z,3.65
2023-03-29T19:36:28.600Z,2.28
2023-03-29T19:38:59.733Z,2.45
2023-03-29T19:41:32.528Z,2.28
2023-03-29T19:44:02.782Z,1.85
2023-03-29T19:46:33.157Z,1.92
2023-03-29T19:49:05.551Z,1.58
2023-03-29T19:51:36.152Z,2.22
2023-03-29T19:54:07.195Z,1.88
2023-03-29T19:56:39.967Z,2.20
2023-03-29T19:59:11.367Z,2.55
2023-03-29T20:01:44.194Z,4.05
2023-03-29T20:04:14.843Z,2.17
2023-03-29T20:06:45.439Z,2.03
2023-03-29T20:09:17.899Z,1.85
2023-03-29T20:11:51.121Z,1.65
2023-03-29T20:14:21.939Z,2.03
2023-03-29T20:19:26.796Z,1.98
2023-03-29T20:21:57.713Z,1.38
2023-03-29T20:24:29.182Z,1.50
2023-03-29T20:27:04.060Z,2.08
2023-03-29T20:29:34.919Z,2.00
2023-03-29T20:34:35.146Z,1.58
2023-03-29T20:37:06.003Z,2.00
2023-03-29T20:42:09.360Z,1.40
2023-03-29T20:44:39.535Z,2.13
2023-03-29T20:47:14.301Z,1.35
2023-03-29T20:49:44.551Z,1.98
2023-03-29T20:52:16.498Z,1.48
2023-03-29T20:54:48.387Z,1.67
2023-03-29T20:57:22.932Z,2.33
2023-03-29T20:59:53.503Z,1.48
2023-03-29T21:02:25.213Z,1.50
2023-03-29T21:05:00.560Z,1.58
2023-03-29T21:07:31.213Z,2.13
2023-03-29T21:10:01.388Z,2.47
2023-03-29T21:12:34.256Z,2.08
2023-03-29T21:15:04.408Z,1.50
2023-03-29T21:17:34.775Z,1.27
2023-03-29T21:20:08.190Z,2.08
2023-03-29T21:22:39.182Z,2.42
2023-03-29T21:25:11.421Z,1.92
2023-03-29T21:27:44.298Z,1.58
2023-03-29T21:30:15.155Z,1.85
2023-03-29T21:35:15.867Z,0.95
2023-03-29T21:40:16.836Z,1.45
2023-03-29T21:42:49.632Z,1.23
2023-03-29T21:45:20.797Z,1.58
2023-03-29T21:47:51.001Z,1.50
2023-03-29T21:50:21.502Z,1.60
2023-03-29T21:52:51.669Z,1.30
2023-03-29T21:55:22.127Z,1.63
2023-03-29T21:57:55.065Z,1.33
2023-03-29T22:00:25.507Z,1.63
2023-03-29T22:02:55.614Z,1.20
2023-03-29T22:05:26.364Z,0.90
2023-03-29T22:07:58.871Z,1.42
2023-03-29T22:10:29.836Z,1.23
2023-03-29T22:13:03.382Z,0.88
2023-03-29T22:15:39.124Z,1.05
2023-03-29T22:18:10.305Z,1.50
2023-03-29T22:20:40.731Z,1.02
2023-03-29T22:23:10.866Z,0.90
2023-03-29T22:25:41.044Z,1.27
2023-03-29T22:28:13.866Z,0.98
2023-03-29T22:30:45.347Z,0.88
2023-03-29T22:33:16.235Z,0.82
2023-03-29T22:35:46.735Z,0.65
2023-03-29T22:38:16.856Z,1.17
2023-03-29T22:40:47.226Z,1.35
2023-03-29T22:43:19.936Z,1.05
2023-03-29T22:45:50.701Z,0.95
2023-03-29T22:50:50.947Z,1.17
2023-03-29T22:53:21.764Z,2.20
2023-03-29T22:58:24.792Z,0.88
2023-03-29T23:00:55.252Z,1.17
2023-03-29T23:03:25.714Z,1.15
2023-03-29T23:05:57.938Z,0.85
2023-03-29T23:08:29.213Z,1.27
2023-03-29T23:10:59.724Z,1.27
2023-03-29T23:13:33.740Z,1.50
2023-03-29T23:16:05.059Z,0.95
2023-03-29T23:18:37.866Z,1.20
2023-03-29T23:21:09.258Z,1.08
2023-03-29T23:23:39.756Z,1.08
2023-03-29T23:26:11.461Z,0.90
2023-03-29T23:28:44.972Z,2.20
2023-03-29T23:31:18.666Z,1.30
2023-03-29T23:33:49.629Z,1.23
2023-03-29T23:38:51.573Z,0.95
2023-03-29T23:41:23.175Z,1.13
2023-03-29T23:43:57.837Z,0.75
2023-03-29T23:46:28.276Z,0.85
2023-03-29T23:48:58.539Z,0.85
2023-03-29T23:51:29.141Z,1.33
2023-03-29T23:53:59.776Z,0.68
2023-03-29T23:56:30.029Z,1.17
2023-03-29T23:59:03.526Z,1.60
